Time;durP1;ratioP1;P1;durP2;ratioP2;P2;SDS_P1;SDS_P2;PMS_P1;PMS_P2;Temp;Humidity;BMP_temperature;BMP_pressure;BME280_temperature;BME280_humidity;BME280_pressure;Samples;Min_cycle;Max_cycle;Signal;HPM_P1;HPM_P2
2023/03/29 00:01:24;;;;;;;2.95;1.63;;;;;;;4.96;49.54;100175.91;5073094;28;20260;-65
2023/03/29 00:03:50;;;;;;;1.38;1.27;;;;;;;4.83;49.67;100180.41;5074778;28;20338;-64
2023/03/29 00:06:20;;;;;;;1.48;1.25;;;;;;;4.88;50.02;100180.06;5073391;28;20036;-64
2023/03/29 00:08:49;;;;;;;1.88;1.20;;;;;;;4.87;49.83;100178.38;5074530;28;20055;-69
2023/03/29 00:11:16;;;;;;;2.17;1.10;;;;;;;4.90;49.98;100180.78;5073658;28;20111;-65
2023/03/29 00:13:42;;;;;;;1.20;1.10;;;;;;;4.92;50.10;100184.13;5073985;28;20036;-65
2023/03/29 00:16:08;;;;;;;2.28;1.33;;;;;;;4.93;50.00;100183.16;5074252;28;20057;-69
2023/03/29 00:18:33;;;;;;;1.80;1.20;;;;;;;4.95;49.93;100197.84;5074018;28;20405;-65
2023/03/29 00:20:59;;;;;;;1.75;1.65;;;;;;;4.92;50.27;100192.00;5074526;28;20262;-68
2023/03/29 00:23:25;;;;;;;2.38;1.67;;;;;;;4.96;50.04;100193.44;5074653;28;20028;-68
2023/03/29 00:25:54;;;;;;;2.33;1.55;;;;;;;4.92;49.97;100187.59;5074270;28;20100;-68
2023/03/29 00:28:20;;;;;;;3.15;1.60;;;;;;;4.84;50.10;100179.44;5074923;28;20368;-65
2023/03/29 00:30:45;;;;;;;2.83;1.48;;;;;;;4.75;50.73;100188.00;5072853;28;20111;-68
2023/03/29 00:33:11;;;;;;;4.57;2.10;;;;;;;4.67;50.87;100187.75;5074750;28;20036;-69
2023/03/29 00:35:38;;;;;;;1.58;1.48;;;;;;;4.68;51.32;100190.25;5072686;28;20314;-64
2023/03/29 00:38:05;;;;;;;2.03;1.50;;;;;;;4.63;51.20;100194.16;5073177;28;20266;-65
2023/03/29 00:40:31;;;;;;;2.90;1.80;;;;;;;4.55;51.27;100197.34;5075577;28;20064;-68
2023/03/29 00:42:57;;;;;;;1.80;1.70;;;;;;;4.53;51.52;100201.03;5074286;28;20037;-68
2023/03/29 00:45:25;;;;;;;2.50;2.28;;;;;;;4.52;51.79;100199.38;5072674;28;20070;-65
2023/03/29 00:47:56;;;;;;;1.80;1.67;;;;;;;4.43;51.75;100204.34;5073913;28;20069;-64
2023/03/29 00:50:31;;;;;;;2.25;2.08;;;;;;;4.46;51.74;100214.59;5074602;28;20048;-64
2023/03/29 00:53:04;;;;;;;2.13;1.90;;;;;;;4.46;52.00;100206.72;5073107;28;20040;-64
2023/03/29 00:55:32;;;;;;;;;;;;;;;4.41;52.10;100208.84;5073759;28;20048;-64
2023/03/29 00:57:59;;;;;;;2.20;1.85;;;;;;;4.42;52.36;100205.28;5075165;28;19920;-68
2023/03/29 01:00:32;;;;;;;2.63;2.10;;;;;;;4.42;52.19;100202.66;5073330;28;20029;-64
2023/03/29 01:03:01;;;;;;;3.33;2.00;;;;;;;4.44;52.13;100203.38;5074043;28;20028;-64
2023/03/29 01:05:39;;;;;;;5.93;2.38;;;;;;;4.50;52.12;100207.34;5076070;28;20115;-64
2023/03/29 01:08:07;;;;;;;2.45;2.25;;;;;;;4.46;52.27;100203.28;5077216;28;20240;-68
2023/03/29 01:10:42;;;;;;;4.90;2.15;;;;;;;4.41;52.13;100206.22;5077089;28;20422;-68
2023/03/29 01:13:15;;;;;;;4.28;1.70;;;;;;;4.42;52.10;100220.19;5075760;28;20033;-68
2023/03/29 01:15:44;;;;;;;2.72;1.90;;;;;;;4.37;51.87;100219.69;5076414;28;20063;-68
2023/03/29 01:18:09;;;;;;;3.15;2.33;;;;;;;4.39;51.68;100217.78;5076926;28;20096;-68
2023/03/29 01:21:22;;;;;;;2.03;1.70;;;;;;;4.31;51.79;100223.56;5075732;28;20094;-69
2023/03/29 01:24:14;;;;;;;2.08;1.83;;;;;;;4.23;52.03;100231.16;5026200;28;20054;-64
2023/03/29 01:27:08;;;;;;;2.28;2.08;;;;;;;4.22;52.13;100239.13;5078439;28;20052;-68
2023/03/29 01:29:52;;;;;;;4.05;1.85;;;;;;;4.21;52.12;100250.56;5079849;28;20040;-64
2023/03/29 01:32:29;;;;;;;4.40;2.22;;;;;;;4.20;51.88;100241.03;5079172;28;20048;-69
2023/03/29 01:35:13;;;;;;;2.30;2.10;;;;;;;4.32;51.29;100254.09;5078593;28;20369;-69
2023/03/29 01:37:47;;;;;;;2.35;2.10;;;;;;;4.39;51.14;100242.22;5080447;28;20044;-65
2023/03/29 01:40:12;;;;;;;3.13;2.83;;;;;;;4.36;51.58;100246.84;5080115;28;20032;-68
2023/03/29 01:42:47;;;;;;;2.22;2.05;;;;;;;4.37;51.48;100251.97;5079200;28;20037;-68
2023/03/29 01:45:35;;;;;;;4.50;1.98;;;;;;;4.37;52.28;100262.47;5081777;28;20068;-68
2023/03/29 01:48:19;;;;;;;2.50;2.13;;;;;;;4.46;51.65;100251.31;5080351;28;20032;-64
2023/03/29 01:50:53;;;;;;;3.45;2.60;;;;;;;4.39;51.16;100246.63;5079596;28;20071;-67
2023/03/29 01:53:23;;;;;;;3.53;2.15;;;;;;;4.44;50.86;100241.88;5080160;28;20081;-65
2023/03/29 01:55:58;;;;;;;2.53;1.98;;;;;;;4.40;50.77;100246.50;5078705;28;20067;-68
2023/03/29 01:58:32;;;;;;;3.05;2.35;;;;;;;4.31;50.84;100255.03;5078383;28;20227;-68
2023/03/29 02:01:04;;;;;;;4.78;3.38;;;;;;;4.34;50.62;100251.34;5075724;28;20037;-68
2023/03/29 02:03:33;;;;;;;3.30;2.60;;;;;;;4.35;50.20;100263.53;5075951;28;20181;-68
2023/03/29 02:06:00;;;;;;;2.85;2.45;;;;;;;4.29;50.23;100262.16;5077511;28;20123;-68
2023/03/29 02:08:27;;;;;;;2.83;2.20;;;;;;;4.27;50.22;100255.38;5075663;28;20077;-64
2023/03/29 02:10:53;;;;;;;2.72;2.35;;;;;;;4.23;50.33;100261.78;5077031;28;20042;-68
2023/03/29 02:13:19;;;;;;;5.18;2.60;;;;;;;4.26;50.32;100267.63;5075401;28;20066;-64
2023/03/29 02:15:46;;;;;;;2.90;2.70;;;;;;;4.32;50.20;100266.34;5076494;28;20361;-68
2023/03/29 02:18:17;;;;;;;4.43;2.20;;;;;;;4.37;49.60;100267.69;5075445;28;20234;-69
2023/03/29 02:20:48;;;;;;;3.05;2.40;;;;;;;4.39;49.29;100271.06;5076410;28;20078;-64
2023/03/29 02:23:38;;;;;;;3.67;2.28;;;;;;;4.38;49.94;100276.41;5075131;28;20025;-69
2023/03/29 02:26:05;;;;;;;4.00;2.53;;;;;;;4.38;49.99;100287.72;5072292;28;20048;-68
2023/03/29 02:28:32;;;;;;;3.20;2.20;;;;;;;4.34;49.70;100283.66;5076936;28;20094;-64
2023/03/29 02:31:32;;;;;;;2.58;2.30;;;;;;;4.20;50.04;100296.06;5075957;28;20330;-64
2023/03/29 02:34:07;;;;;;;4.00;2.38;;;;;;;4.21;50.29;100298.56;5076466;28;20048;-65
2023/03/29 02:36:37;;;;;;;3.13;2.40;;;;;;;4.17;50.08;100302.34;5075720;28;20083;-64
2023/03/29 02:39:04;;;;;;;2.28;2.08;;;;;;;4.13;50.36;100311.34;5074474;28;20043;-68
2023/03/29 02:41:31;;;;;;;3.75;2.47;;;;;;;4.12;50.80;100309.69;5076078;28;20044;-64
2023/03/29 02:43:59;;;;;;;4.88;2.28;;;;;;;4.13;50.37;100312.19;5074553;28;20040;-69
2023/03/29 02:46:25;;;;;;;3.00;2.13;;;;;;;4.17;50.20;100318.09;5076557;28;20092;-69
2023/03/29 02:48:52;;;;;;;4.25;2.58;;;;;;;4.17;50.47;100323.31;5076160;28;20046;-64
2023/03/29 02:51:22;;;;;;;3.83;2.38;;;;;;;4.12;50.53;100315.75;5074986;28;20036;-64
2023/03/29 02:53:56;;;;;;;6.53;3.47;;;;;;;4.10;50.32;100322.88;5075344;28;20032;-68
2023/03/29 02:56:22;;;;;;;2.58;2.33;;;;;;;4.02;50.42;100313.88;5074706;28;20424;-64
2023/03/29 02:58:47;;;;;;;3.28;2.70;;;;;;;3.98;50.63;100323.75;5075570;28;20735;-65
2023/03/29 03:01:15;;;;;;;4.85;2.53;;;;;;;4.01;50.65;100322.69;5075613;28;20029;-67
2023/03/29 03:03:40;;;;;;;4.82;2.50;;;;;;;4.04;50.40;100322.47;5075653;28;20354;-69
2023/03/29 03:06:06;;;;;;;4.75;2.75;;;;;;;4.07;50.25;100317.03;5074832;28;20418;-68
2023/03/29 03:08:31;;;;;;;3.78;2.78;;;;;;;4.03;49.87;100315.56;5074925;28;20048;-68
2023/03/29 03:10:58;;;;;;;3.45;2.50;;;;;;;4.00;50.13;100321.00;5076171;28;20040;-64
2023/03/29 03:13:23;;;;;;;5.35;3.38;;;;;;;4.02;50.13;100332.22;5074668;28;20114;-68
2023/03/29 03:15:49;;;;;;;12.00;5.72;;;;;;;3.98;49.99;100325.53;5076267;28;20370;-68
2023/03/29 03:18:15;;;;;;;6.00;2.78;;;;;;;3.99;49.50;100335.06;5074411;28;20040;-68
2023/03/29 03:20:41;;;;;;;3.65;2.40;;;;;;;3.90;49.23;100328.66;5076698;28;20058;-68
2023/03/29 03:23:08;;;;;;;4.07;2.55;;;;;;;3.87;49.57;100326.25;5074697;28;20033;-63
2023/03/29 03:25:34;;;;;;;5.00;2.22;;;;;;;3.91;49.71;100337.38;5075167;28;20032;-64
2023/03/29 03:28:01;;;;;;;6.18;2.42;;;;;;;3.95;49.52;100334.44;5073944;28;20331;-64
2023/03/29 03:30:27;;;;;;;3.78;2.72;;;;;;;3.93;49.60;100340.72;5075183;28;20040;-64
2023/03/29 03:32:56;;;;;;;3.70;2.65;;;;;;;3.84;50.29;100343.03;5075200;28;20350;-68
2023/03/29 03:35:21;;;;;;;3.70;2.90;;;;;;;3.75;50.71;100341.03;5074028;28;20036;-69
2023/03/29 03:37:47;;;;;;;4.28;2.90;;;;;;;3.77;50.73;100346.16;5074859;28;20028;-64
2023/03/29 03:40:12;;;;;;;3.92;3.13;;;;;;;3.76;50.46;100347.94;5074562;28;20099;-64
2023/03/29 03:42:39;;;;;;;3.33;2.92;;;;;;;3.71;50.41;100347.41;5075564;28;20062;-68
2023/03/29 03:45:07;;;;;;;4.70;3.08;;;;;;;3.72;50.25;100353.50;5074235;28;20075;-68
2023/03/29 03:47:38;;;;;;;4.13;2.75;;;;;;;3.72;50.69;100356.13;5075474;28;20040;-65
2023/03/29 03:50:05;;;;;;;2.85;2.40;;;;;;;3.57;50.72;100355.38;5074054;28;20044;-68
2023/03/29 03:52:31;;;;;;;3.63;2.75;;;;;;;3.70;50.64;100350.13;5074729;28;20044;-65
2023/03/29 03:54:56;;;;;;;3.38;2.95;;;;;;;3.58;50.82;100357.03;5075847;28;20036;-69
2023/03/29 03:57:23;;;;;;;9.10;3.95;;;;;;;3.60;50.86;100360.41;5074244;28;20035;-62
2023/03/29 03:59:49;;;;;;;3.70;3.00;;;;;;;3.67;50.75;100361.66;5075224;28;20042;-66
2023/03/29 04:02:15;;;;;;;3.50;3.15;;;;;;;3.64;50.56;100368.88;5074117;28;20052;-62
2023/03/29 04:04:41;;;;;;;7.88;4.05;;;;;;;3.62;50.65;100371.59;5074203;28;20314;-66
2023/03/29 04:07:07;;;;;;;7.90;5.38;;;;;;;3.59;51.19;100377.06;5073633;28;20315;-66
2023/03/29 04:09:33;;;;;;;5.95;4.45;;;;;;;3.61;50.84;100383.03;5075157;28;20072;-62
2023/03/29 04:12:00;;;;;;;4.15;3.42;;;;;;;3.71;50.53;100380.63;5073475;28;20102;-66
2023/03/29 04:14:26;;;;;;;5.38;3.35;;;;;;;3.66;50.62;100380.94;5074600;28;20039;-62
2023/03/29 04:16:54;;;;;;;3.58;3.20;;;;;;;3.67;50.60;100377.38;5074263;28;20297;-62
2023/03/29 04:19:20;;;;;;;5.30;3.67;;;;;;;3.64;50.53;100380.19;5073431;28;20072;-66
2023/03/29 04:21:48;;;;;;;4.00;3.17;;;;;;;3.62;50.44;100389.09;5074356;28;20323;-66
2023/03/29 04:24:14;;;;;;;6.32;3.15;;;;;;;3.64;50.73;100381.97;5057483;28;20346;-61
2023/03/29 04:26:39;;;;;;;4.50;3.05;;;;;;;3.68;50.59;100379.06;5077226;28;20032;-63
2023/03/29 04:29:05;;;;;;;6.22;3.13;;;;;;;3.61;50.85;100382.19;5110166;28;20048;-66
2023/03/29 04:31:31;;;;;;;6.28;3.50;;;;;;;3.67;50.84;100390.47;5085045;28;20055;-67
2023/03/29 04:33:56;;;;;;;7.03;3.40;;;;;;;3.59;51.10;100392.75;5063793;28;20047;-66
2023/03/29 04:36:23;;;;;;;5.93;3.53;;;;;;;3.72;51.09;100390.16;5077058;28;20053;-63
2023/03/29 04:38:51;;;;;;;3.65;3.30;;;;;;;3.73;51.16;100387.44;5067465;28;20044;-66
2023/03/29 04:41:16;;;;;;;4.32;3.30;;;;;;;3.78;51.24;100395.81;5076571;28;20033;-66
2023/03/29 04:43:45;;;;;;;4.72;2.72;;;;;;;3.57;51.43;100394.66;5075106;28;20043;-66
2023/03/29 04:46:12;;;;;;;3.03;2.72;;;;;;;3.58;51.60;100396.31;5076917;28;20083;-63
2023/03/29 04:48:38;;;;;;;4.43;2.97;;;;;;;3.79;51.08;100397.50;5076688;28;20074;-66
2023/03/29 04:51:03;;;;;;;3.45;3.13;;;;;;;3.90;50.91;100390.69;5076584;28;20037;-66
2023/03/29 04:53:29;;;;;;;6.25;3.25;;;;;;;3.98;50.72;100401.50;5076276;28;20063;-62
2023/03/29 04:55:54;;;;;;;4.68;3.60;;;;;;;3.98;50.71;100397.09;5076273;28;20024;-61
2023/03/29 04:58:20;;;;;;;5.30;3.25;;;;;;;4.03;50.44;100391.53;5079028;28;20028;-67
2023/03/29 05:00:46;;;;;;;4.07;3.63;;;;;;;4.03;50.75;100396.78;5079958;28;20122;-63
2023/03/29 05:03:13;;;;;;;5.60;3.50;;;;;;;4.08;50.60;100386.84;5080264;28;20036;-66
2023/03/29 05:05:40;;;;;;;4.55;3.47;;;;;;;4.19;50.16;100394.81;5080424;28;20318;-66
2023/03/29 05:08:06;;;;;;;3.55;3.17;;;;;;;4.27;49.85;100403.00;5079568;28;20091;-67
2023/03/29 05:10:31;;;;;;;4.40;3.42;;;;;;;4.12;50.30;100401.41;5079430;28;20070;-67
2023/03/29 05:12:57;;;;;;;4.35;3.35;;;;;;;4.23;50.44;100408.56;5079367;28;20372;-62
2023/03/29 05:15:22;;;;;;;10.52;4.35;;;;;;;4.26;50.54;100398.69;5078956;28;20047;-62
2023/03/29 05:17:48;;;;;;;4.30;3.70;;;;;;;4.28;50.67;100409.91;5078815;28;20039;-66
2023/03/29 05:20:14;;;;;;;5.15;3.70;;;;;;;4.35;50.30;100418.19;5079344;28;20039;-62
2023/03/29 05:22:40;;;;;;;5.25;3.65;;;;;;;4.41;50.00;100418.63;5079947;28;20032;-66
2023/03/29 05:25:07;;;;;;;3.72;3.17;;;;;;;4.47;49.96;100420.81;5079678;28;20039;-62
2023/03/29 05:27:33;;;;;;;4.93;3.70;;;;;;;4.55;50.12;100417.66;5079120;28;20211;-62
2023/03/29 05:30:00;;;;;;;5.78;3.67;;;;;;;4.68;49.37;100423.72;5078793;28;20201;-62
2023/03/29 05:32:26;;;;;;;6.30;3.40;;;;;;;4.76;48.79;100426.63;5078807;28;20336;-69
2023/03/29 05:34:51;;;;;;;6.25;4.88;;;;;;;5.00;48.54;100425.84;5079555;28;20056;-65
2023/03/29 05:37:17;;;;;;;4.35;3.42;;;;;;;5.19;47.86;100426.19;5079944;28;20341;-65
2023/03/29 05:39:44;;;;;;;4.32;3.20;;;;;;;5.41;47.62;100425.50;5079352;28;20035;-65
2023/03/29 05:42:12;;;;;;;3.95;3.20;;;;;;;5.44;47.12;100435.78;5078979;28;20032;-69
2023/03/29 05:44:38;;;;;;;5.70;2.97;;;;;;;5.64;46.91;100440.41;5075254;28;20312;-69
2023/03/29 05:47:04;;;;;;;3.78;2.95;;;;;;;5.66;46.57;100440.28;5075703;28;20028;-69
2023/03/29 05:49:29;;;;;;;5.03;2.95;;;;;;;5.81;45.79;100436.50;5073709;28;20060;-65
2023/03/29 05:51:55;;;;;;;3.88;2.95;;;;;;;5.96;46.21;100435.41;5073204;28;20032;-65
2023/03/29 05:54:22;;;;;;;5.38;3.30;;;;;;;6.15;45.40;100429.56;5074650;28;20029;-65
2023/03/29 05:56:48;;;;;;;3.55;2.70;;;;;;;6.24;45.03;100435.94;5072540;28;20071;-64
2023/03/29 05:59:13;;;;;;;4.93;3.03;;;;;;;6.32;44.85;100428.31;5070883;28;20326;-64
2023/03/29 06:01:40;;;;;;;5.03;2.83;;;;;;;6.39;44.87;100427.72;5073369;28;20033;-69
2023/03/29 06:04:06;;;;;;;5.22;2.70;;;;;;;6.55;43.38;100437.06;5071744;28;20033;-65
2023/03/29 06:06:32;;;;;;;5.53;3.00;;;;;;;6.66;42.13;100431.78;5074425;28;20373;-65
2023/03/29 06:08:58;;;;;;;3.97;2.40;;;;;;;6.59;41.94;100427.97;5071833;28;20036;-69
2023/03/29 06:11:25;;;;;;;4.22;2.72;;;;;;;6.63;42.17;100440.75;5073725;28;20035;-69
2023/03/29 06:13:50;;;;;;;4.50;2.40;;;;;;;6.66;40.47;100437.06;5073023;28;20113;-65
2023/03/29 06:16:16;;;;;;;4.30;2.28;;;;;;;6.63;39.90;100446.03;5073643;28;20075;-69
2023/03/29 06:18:41;;;;;;;3.08;2.28;;;;;;;6.80;39.50;100444.69;5072975;28;20334;-69
2023/03/29 06:21:08;;;;;;;2.53;2.10;;;;;;;6.97;39.99;100451.25;5074493;28;20034;-65
2023/03/29 06:23:33;;;;;;;3.20;2.25;;;;;;;7.13;39.71;100448.25;5071956;28;20032;-65
2023/03/29 06:25:59;;;;;;;3.53;2.22;;;;;;;7.19;38.56;100456.50;5072821;28;20043;-65
2023/03/29 06:28:24;;;;;;;3.40;2.47;;;;;;;7.26;39.26;100454.19;5074304;28;20354;-65
2023/03/29 06:30:52;;;;;;;6.15;2.35;;;;;;;7.38;38.15;100457.69;5073226;28;20036;-65
2023/03/29 06:33:17;;;;;;;2.78;2.10;;;;;;;7.15;38.25;100468.22;5074287;28;20036;-69
2023/03/29 06:35:46;;;;;;;2.53;2.20;;;;;;;7.21;38.63;100456.38;5071183;28;20221;-65
2023/03/29 06:38:11;;;;;;;2.55;2.22;;;;;;;7.47;38.14;100475.38;5074219;28;20047;-69
2023/03/29 06:40:37;;;;;;;2.17;1.90;;;;;;;7.59;37.99;100469.09;5072045;28;20041;-65
2023/03/29 06:43:03;;;;;;;4.18;2.38;;;;;;;7.58;38.19;100460.38;5073545;28;20133;-69
2023/03/29 06:45:32;;;;;;;3.03;2.20;;;;;;;7.69;37.62;100462.13;5072212;28;20037;-69
2023/03/29 06:47:58;;;;;;;3.45;2.13;;;;;;;7.87;37.51;100470.31;5072121;28;20035;-64
2023/03/29 06:50:24;;;;;;;2.20;2.00;;;;;;;7.86;35.45;100473.91;5072477;28;20386;-65
2023/03/29 06:52:50;;;;;;;3.85;2.30;;;;;;;8.18;35.98;100463.31;5071984;28;20029;-65
2023/03/29 06:55:16;;;;;;;2.40;2.20;;;;;;;8.30;35.25;100470.19;5072978;28;20036;-69
2023/03/29 06:57:42;;;;;;;2.30;2.10;;;;;;;8.39;34.23;100458.06;5073636;28;20039;-65
2023/03/29 07:00:28;;;;;;;4.50;1.85;;;;;;;8.44;32.54;100463.81;5072681;28;20064;-65
2023/03/29 07:02:56;;;;;;;4.70;2.38;;;;;;;8.53;33.96;100468.28;5071516;28;20040;-70
2023/03/29 07:05:26;;;;;;;2.88;1.63;;;;;;;8.55;32.98;100458.44;5072066;28;20046;-65
2023/03/29 07:07:54;;;;;;;3.47;1.95;;;;;;;8.56;32.36;100446.91;5073381;28;20024;-69
2023/03/29 07:10:26;;;;;;;5.05;1.85;;;;;;;8.43;31.37;100462.97;5070779;28;20125;-64
2023/03/29 07:12:52;;;;;;;2.05;1.23;;;;;;;8.60;31.22;100458.88;5071241;28;20024;-65
2023/03/29 07:15:20;;;;;;;2.20;1.30;;;;;;;8.77;29.85;100460.06;5073118;28;20224;-69
2023/03/29 07:17:48;;;;;;;1.48;1.20;;;;;;;8.62;30.18;100472.78;5070798;28;20110;-66
2023/03/29 07:20:14;;;;;;;1.55;1.27;;;;;;;8.51;30.89;100464.94;5071397;28;20043;-70
2023/03/29 07:22:42;;;;;;;2.88;1.60;;;;;;;8.49;29.74;100469.53;5071783;28;20161;-69
2023/03/29 07:25:08;;;;;;;3.35;1.58;;;;;;;8.52;29.02;100466.63;5068907;28;20318;-65
2023/03/29 07:27:35;;;;;;;1.88;1.30;;;;;;;8.68;29.09;100461.69;5071849;28;20457;-69
2023/03/29 07:30:00;;;;;;;2.22;1.52;;;;;;;8.96;30.44;100482.09;5071374;28;20182;-69
2023/03/29 07:32:30;;;;;;;2.35;1.30;;;;;;;8.92;29.90;100471.94;5071344;28;20035;-66
2023/03/29 07:34:55;;;;;;;1.73;1.63;;;;;;;8.95;28.74;100456.66;5071419;28;20033;-66
2023/03/29 07:37:21;;;;;;;2.95;1.30;;;;;;;8.96;29.74;100465.41;5073372;28;20040;-69
2023/03/29 07:39:46;;;;;;;2.88;1.60;;;;;;;9.01;29.42;100465.00;5071523;28;20295;-66
2023/03/29 07:42:12;;;;;;;4.22;1.50;;;;;;;9.25;28.51;100465.50;5072453;28;20032;-65
2023/03/29 07:44:37;;;;;;;2.38;1.25;;;;;;;9.32;28.71;100463.13;5072656;28;20045;-70
2023/03/29 07:47:04;;;;;;;2.55;1.52;;;;;;;9.29;29.28;100462.44;5070072;28;20357;-65
2023/03/29 07:49:30;;;;;;;5.32;1.58;;;;;;;9.36;28.05;100460.09;5070464;28;20284;-69
2023/03/29 07:51:55;;;;;;;2.10;1.42;;;;;;;9.37;28.25;100459.16;5069864;28;20323;-63
2023/03/29 07:54:21;;;;;;;1.27;1.17;;;;;;;9.57;27.69;100454.72;5071696;28;20043;-63
2023/03/29 07:56:46;;;;;;;1.55;1.20;;;;;;;9.59;28.27;100463.34;5070699;28;20074;-67
2023/03/29 07:59:12;;;;;;;2.22;1.42;;;;;;;9.38;27.53;100450.25;5069095;28;20212;-63
2023/03/29 08:01:39;;;;;;;2.65;1.40;;;;;;;9.82;27.85;100430.34;5071472;28;20105;-67
2023/03/29 08:04:05;;;;;;;3.97;1.45;;;;;;;9.84;28.32;100452.22;5070932;28;20319;-63
2023/03/29 08:06:31;;;;;;;3.08;1.45;;;;;;;9.81;27.51;100433.13;5072003;28;20044;-63
2023/03/29 08:08:57;;;;;;;3.08;1.27;;;;;;;9.79;27.27;100453.59;5070225;28;20082;-64
2023/03/29 08:11:23;;;;;;;2.22;1.00;;;;;;;9.30;27.50;100450.06;5072388;28;20265;-65
2023/03/29 08:13:50;;;;;;;1.77;1.25;;;;;;;9.57;28.50;100446.78;5071174;28;20119;-70
2023/03/29 08:16:15;;;;;;;2.88;1.73;;;;;;;9.58;27.74;100446.66;5070942;28;20048;-67
2023/03/29 08:18:41;;;;;;;1.88;1.27;;;;;;;9.75;28.47;100447.75;5072178;28;20247;-67
2023/03/29 08:21:07;;;;;;;1.67;1.20;;;;;;;10.01;26.83;100439.25;5070236;28;20045;-63
2023/03/29 08:23:32;;;;;;;1.27;1.17;;;;;;;9.72;26.80;100439.28;5072070;28;20040;-67
2023/03/29 08:25:58;;;;;;;2.63;1.20;;;;;;;9.81;27.20;100433.13;5070077;28;20032;-67
2023/03/29 08:28:23;;;;;;;4.72;1.30;;;;;;;9.92;27.74;100433.81;5071496;28;20106;-63
2023/03/29 08:30:49;;;;;;;2.10;1.40;;;;;;;9.59;28.20;100437.75;5070250;28;20074;-62
2023/03/29 08:33:15;;;;;;;1.90;1.30;;;;;;;9.97;28.23;100446.63;5075869;28;20038;-65
2023/03/29 08:35:41;;;;;;;1.75;1.52;;;;;;;9.98;28.17;100436.88;5075072;28;20207;-67
2023/03/29 08:38:07;;;;;;;2.22;1.17;;;;;;;9.87;26.78;100441.34;5076264;28;20058;-63
2023/03/29 08:40:33;;;;;;;2.00;1.27;;;;;;;9.77;27.75;100456.38;5074205;28;20353;-64
2023/03/29 08:43:24;;;;;;;3.08;1.30;;;;;;;9.85;27.41;100445.09;5075790;28;20051;-63
2023/03/29 08:46:22;;;;;;;1.55;1.05;;;;;;;9.93;27.00;100424.91;5071746;28;20067;-63
2023/03/29 08:49:02;;;;;;;1.73;1.20;;;;;;;9.93;27.32;100435.50;5037681;28;20362;-63
2023/03/29 08:51:44;;;;;;;1.30;1.00;;;;;;;9.90;26.92;100430.50;5074542;28;20235;-63
2023/03/29 08:54:26;;;;;;;1.60;1.10;;;;;;;10.11;27.75;100434.78;5073180;28;20131;-67
2023/03/29 08:56:56;;;;;;;1.25;1.00;;;;;;;9.96;26.63;100431.72;5073760;28;20090;-67
2023/03/29 08:59:29;;;;;;;0.90;0.90;;;;;;;10.11;26.96;100446.19;5074442;28;20343;-63
2023/03/29 09:01:57;;;;;;;2.88;1.42;;;;;;;10.21;27.04;100441.75;5070151;28;20064;-67
2023/03/29 09:04:30;;;;;;;1.27;1.10;;;;;;;10.32;26.34;100427.50;5062338;28;20037;-64
2023/03/29 09:06:57;;;;;;;3.88;1.40;;;;;;;10.58;25.93;100437.50;5061879;28;20040;-63
2023/03/29 09:09:34;;;;;;;2.65;1.33;;;;;;;10.67;26.07;100440.09;5060512;28;20147;-64
2023/03/29 09:12:15;;;;;;;1.67;1.58;;;;;;;10.52;26.00;100439.75;5060897;28;20581;-67
2023/03/29 09:14:43;;;;;;;3.22;2.22;;;;;;;10.65;25.84;100428.81;5061071;28;20271;-67
2023/03/29 09:17:27;;;;;;;1.70;1.40;;;;;;;10.72;26.56;100443.16;5064073;28;20041;-63
2023/03/29 09:20:12;;;;;;;4.63;1.30;;;;;;;10.86;25.74;100441.81;5061322;28;20060;-67
2023/03/29 09:23:06;;;;;;;6.18;1.27;;;;;;;10.77;25.48;100442.72;5060175;28;20362;-63
2023/03/29 09:26:08;;;;;;;2.27;1.00;;;;;;;10.79;25.14;100441.59;5062222;28;20252;-67
2023/03/29 09:28:46;;;;;;;1.70;1.20;;;;;;;11.00;26.35;100443.16;5060624;28;20057;-63
2023/03/29 09:31:21;;;;;;;1.40;1.30;;;;;;;11.00;25.46;100446.63;5061613;28;20047;-67
2023/03/29 09:34:05;;;;;;;1.35;1.25;;;;;;;11.09;25.92;100444.91;5061101;28;20040;-63
2023/03/29 09:36:31;;;;;;;;;;;;;;;11.02;25.23;100452.63;5062577;28;20164;-67
2023/03/29 09:38:56;;;;;;;1.33;1.23;;;;;;;10.97;25.65;100446.09;5061066;28;20173;-67
2023/03/29 09:41:41;;;;;;;1.23;1.10;;;;;;;11.01;25.79;100450.13;5061217;28;20219;-63
2023/03/29 09:44:15;;;;;;;1.20;1.10;;;;;;;11.16;27.24;100454.78;5065258;28;20207;-67
2023/03/29 09:46:45;;;;;;;2.08;1.20;;;;;;;10.96;26.06;100455.03;5060562;28;20385;-64
2023/03/29 09:49:16;;;;;;;2.38;1.42;;;;;;;11.14;25.50;100450.59;5060630;28;20128;-70
2023/03/29 09:51:46;;;;;;;2.72;1.33;;;;;;;11.13;25.90;100441.81;5064434;28;21227;-67
2023/03/29 09:54:11;;;;;;;2.65;1.30;;;;;;;11.14;26.00;100440.84;5059751;28;20150;-68
2023/03/29 09:56:38;;;;;;;1.50;1.00;;;;;;;11.24;25.59;100440.78;5061439;28;20021;-67
2023/03/29 09:59:04;;;;;;;0.93;0.93;;;;;;;11.18;25.36;100428.94;5060153;28;20044;-67
2023/03/29 10:01:40;;;;;;;1.95;0.95;;;;;;;10.84;24.37;100443.78;5060875;28;20411;-63
2023/03/29 10:04:08;;;;;;;1.23;1.10;;;;;;;10.91;25.01;100431.63;5060249;28;20399;-67
2023/03/29 10:06:34;;;;;;;2.13;1.33;;;;;;;10.89;25.19;100430.94;5060767;28;20052;-63
2023/03/29 10:09:01;;;;;;;1.05;0.95;;;;;;;11.08;24.94;100419.41;5059881;28;20052;-67
2023/03/29 10:11:35;;;;;;;4.07;1.17;;;;;;;11.22;25.18;100418.06;5061004;28;20253;-63
2023/03/29 10:14:39;;;;;;;2.15;1.10;;;;;;;11.24;23.16;100418.72;5059882;28;20047;-67
2023/03/29 10:17:32;;;;;;;3.53;1.13;;;;;;;11.28;23.95;100406.84;5058977;28;20036;-63
2023/03/29 10:20:02;;;;;;;1.85;1.08;;;;;;;11.18;24.46;100415.69;5059705;28;20156;-67
2023/03/29 10:22:36;;;;;;;2.20;1.30;;;;;;;11.29;23.79;100409.34;5059948;28;20038;-63
2023/03/29 10:25:03;;;;;;;1.58;1.38;;;;;;;11.29;24.78;100403.22;5060113;28;20393;-62
2023/03/29 10:27:33;;;;;;;1.80;1.25;;;;;;;11.31;23.53;100402.06;5060174;28;20373;-67
2023/03/29 10:30:07;;;;;;;2.85;1.48;;;;;;;11.33;23.12;100392.16;5060420;28;20079;-62
2023/03/29 10:32:38;;;;;;;3.35;1.08;;;;;;;11.35;22.21;100395.50;5059188;28;20064;-67
2023/03/29 10:35:19;;;;;;;1.55;1.25;;;;;;;11.33;23.38;100396.63;5060085;28;20045;-64
2023/03/29 10:37:51;;;;;;;2.95;1.33;;;;;;;11.35;23.92;100381.41;5060454;28;20056;-63
2023/03/29 10:40:26;;;;;;;2.72;1.33;;;;;;;11.39;23.97;100391.56;5060780;28;20059;-67
2023/03/29 10:42:53;;;;;;;2.03;1.25;;;;;;;11.47;23.72;100380.22;5067432;28;20033;-63
2023/03/29 10:45:32;;;;;;;1.85;1.08;;;;;;;11.28;23.59;100386.47;5060452;28;20040;-64
2023/03/29 10:47:58;;;;;;;3.45;1.63;;;;;;;11.00;23.32;100371.59;5059898;28;20334;-63
2023/03/29 10:50:31;;;;;;;1.25;1.10;;;;;;;10.74;24.53;100371.47;5059973;28;21117;-64
2023/03/29 10:52:56;;;;;;;2.65;1.20;;;;;;;10.85;24.65;100372.09;5060913;28;20289;-63
2023/03/29 10:55:33;;;;;;;2.00;1.20;;;;;;;11.03;23.33;100369.50;5060647;28;20296;-67
2023/03/29 10:58:39;;;;;;;1.33;1.20;;;;;;;10.88;23.80;100361.22;5090724;28;20037;-68
2023/03/29 11:01:06;;;;;;;1.95;1.10;;;;;;;11.04;24.16;100357.91;5058582;28;21070;-67
2023/03/29 11:03:52;;;;;;;3.05;1.00;;;;;;;11.29;24.02;100364.28;5057372;28;20045;-67
2023/03/29 11:06:46;;;;;;;2.58;1.30;;;;;;;11.38;23.63;100343.97;5058719;28;20095;-67
2023/03/29 11:09:40;;;;;;;1.87;1.03;;;;;;;11.24;24.16;100355.13;5057674;28;20044;-63
2023/03/29 11:12:13;;;;;;;1.48;0.90;;;;;;;11.30;24.06;100342.09;5058195;28;20041;-67
2023/03/29 11:14:58;;;;;;;1.55;0.95;;;;;;;11.20;24.17;100338.69;5060747;28;20127;-67
2023/03/29 11:17:24;;;;;;;1.45;1.20;;;;;;;11.55;23.71;100321.09;5060028;28;20369;-66
2023/03/29 11:20:17;;;;;;;2.70;1.20;;;;;;;11.64;25.19;100333.44;5060295;28;20331;-70
2023/03/29 11:23:02;;;;;;;1.98;1.10;;;;;;;11.38;23.26;100330.72;5058059;28;20037;-66
2023/03/29 11:25:44;;;;;;;3.65;1.02;;;;;;;11.27;23.49;100330.94;5056274;28;20044;-67
2023/03/29 11:28:20;;;;;;;4.63;1.30;;;;;;;11.14;23.42;100332.16;5056951;28;20269;-67
2023/03/29 11:31:02;;;;;;;1.33;1.10;;;;;;;11.24;22.43;100312.69;5058124;28;20037;-70
2023/03/29 11:33:45;;;;;;;1.60;1.08;;;;;;;11.23;22.74;100300.44;5059948;28;20522;-66
2023/03/29 11:36:37;;;;;;;3.58;1.10;;;;;;;11.25;23.31;100298.47;5059456;28;20048;-63
2023/03/29 11:39:14;;;;;;;1.58;0.90;;;;;;;11.21;22.30;100308.53;5057388;28;20216;-62
2023/03/29 11:41:47;;;;;;;0.93;0.85;;;;;;;11.16;23.20;100305.50;5057455;28;20056;-70
2023/03/29 11:44:23;;;;;;;1.02;0.93;;;;;;;11.39;21.81;100301.41;5057935;28;20032;-67
2023/03/29 11:47:00;;;;;;;1.60;1.50;;;;;;;11.48;22.72;100289.91;5056419;28;20044;-67